Time;durP1;ratioP1;P1;durP2;ratioP2;P2;SDS_P1;SDS_P2;PMS_P1;PMS_P2;Temp;Humidity;BMP_temperature;BMP_pressure;BME280_temperature;BME280_humidity;BME280_pressure;Samples;Min_cycle;Max_cycle;Signal;HPM_P1;HPM_P2
2023/05/21 00:00:35;;;;;;;11.88;5.82;;;17.50;98.10;;;;;;4995501;28;20041;-74
2023/05/21 00:03:01;;;;;;;8.85;5.45;;;17.40;98.30;;;;;;4994446;28;20021;-75
2023/05/21 00:05:27;;;;;;;8.18;6.10;;;17.30;98.40;;;;;;5011204;28;20049;-75
2023/05/21 00:07:53;;;;;;;10.40;5.43;;;17.30;98.50;;;;;;4994845;28;20017;-74
2023/05/21 00:10:19;;;;;;;10.05;6.28;;;17.30;98.70;;;;;;4995720;28;20034;-75
2023/05/21 00:12:47;;;;;;;9.25;5.80;;;17.20;98.80;;;;;;4999491;28;20029;-74
2023/05/21 00:15:15;;;;;;;8.65;5.47;;;17.20;99.00;;;;;;5010605;28;20037;-77
2023/05/21 00:17:42;;;;;;;6.32;5.57;;;17.10;99.20;;;;;;5011947;28;20049;-78
2023/05/21 00:20:08;;;;;;;7.22;5.63;;;17.00;99.30;;;;;;5010422;28;20025;-80
2023/05/21 00:22:36;;;;;;;7.40;5.53;;;17.00;99.50;;;;;;5011706;28;20056;-79
2023/05/21 00:25:02;;;;;;;8.02;5.82;;;16.90;99.60;;;;;;5008603;28;20025;-79
2023/05/21 00:27:30;;;;;;;7.55;5.90;;;16.90;99.80;;;;;;4994678;28;20563;-79
2023/05/21 00:29:58;;;;;;;9.20;5.63;;;16.80;99.80;;;;;;5011435;28;20451;-78
2023/05/21 00:32:23;;;;;;;7.78;5.40;;;16.80;99.90;;;;;;5013005;28;20103;-78
2023/05/21 00:34:49;;;;;;;10.32;6.15;;;16.80;99.90;;;;;;5012319;28;20028;-79
2023/05/21 00:37:15;;;;;;;9.07;5.38;;;16.70;99.90;;;;;;5011642;28;20025;-82
2023/05/21 00:39:41;;;;;;;9.75;4.93;;;16.70;99.90;;;;;;5008788;28;20033;-79
2023/05/21 00:42:06;;;;;;;8.13;5.18;;;16.70;99.90;;;;;;5013489;28;20489;-78
2023/05/21 00:44:33;;;;;;;6.68;5.25;;;16.70;99.90;;;;;;5000402;28;20032;-78
2023/05/21 00:47:01;;;;;;;5.35;4.78;;;16.60;99.90;;;;;;5010786;28;20030;-78
2023/05/21 00:49:28;;;;;;;6.55;5.30;;;16.60;99.90;;;;;;4994627;28;20022;-78
2023/05/21 00:51:54;;;;;;;8.00;5.07;;;16.60;99.90;;;;;;5012244;28;20014;-78
2023/05/21 00:54:20;;;;;;;6.88;5.10;;;16.60;99.90;;;;;;5011620;28;20049;-78
2023/05/21 00:56:47;;;;;;;5.95;4.82;;;16.60;99.90;;;;;;5010135;28;20013;-78
2023/05/21 00:59:15;;;;;;;7.60;5.40;;;16.50;99.90;;;;;;5018538;28;20029;-78
2023/05/21 01:01:45;;;;;;;6.40;4.57;;;16.50;99.90;;;;;;5014002;28;20041;-77
2023/05/21 01:04:11;;;;;;;8.65;4.75;;;16.50;99.90;;;;;;5029490;28;20025;-77
2023/05/21 01:06:37;;;;;;;7.57;5.28;;;16.40;99.90;;;;;;5024738;28;20028;-78
2023/05/21 01:09:05;;;;;;;7.60;5.10;;;16.40;99.90;;;;;;5002582;28;20025;-79
2023/05/21 01:11:33;;;;;;;7.00;5.20;;;16.40;99.90;;;;;;5011703;28;20013;-78
2023/05/21 01:14:00;;;;;;;7.95;4.43;;;16.30;99.90;;;;;;5011135;28;20481;-78
2023/05/21 01:16:28;;;;;;;9.90;5.05;;;16.30;99.90;;;;;;5012016;28;20022;-79
2023/05/21 01:18:54;;;;;;;7.47;4.88;;;16.30;99.90;;;;;;4993361;28;20500;-78
2023/05/21 01:21:24;;;;;;;6.80;4.68;;;16.30;99.90;;;;;;5004876;28;20049;-80
2023/05/21 01:23:49;;;;;;;8.43;5.13;;;16.30;99.90;;;;;;5013699;28;20116;-79
2023/05/21 01:26:15;;;;;;;11.93;4.93;;;16.30;99.90;;;;;;5015630;28;20152;-80
2023/05/21 01:28:41;;;;;;;7.97;4.60;;;16.20;99.90;;;;;;5002711;28;20087;-79
2023/05/21 01:31:19;;;;;;;6.60;4.57;;;16.20;99.90;;;;;;4997135;28;20129;-77
2023/05/21 01:33:48;;;;;;;5.75;4.47;;;16.20;99.90;;;;;;4999471;28;20025;-80
2023/05/21 01:36:26;;;;;;;5.22;4.68;;;16.20;99.90;;;;;;5015260;28;20021;-78
2023/05/21 01:39:00;;;;;;;7.80;4.38;;;16.10;99.90;;;;;;5012642;28;20024;-79
2023/05/21 01:41:31;;;;;;;7.57;4.95;;;16.10;99.90;;;;;;5014666;28;20598;-79
2023/05/21 01:43:57;;;;;;;6.35;4.30;;;16.10;99.90;;;;;;5014560;28;20057;-79
2023/05/21 01:46:28;;;;;;;5.80;4.65;;;16.00;99.90;;;;;;5014945;28;20064;-79
2023/05/21 01:48:58;;;;;;;7.60;4.20;;;16.00;99.90;;;;;;5014676;28;20057;-79
2023/05/21 01:51:25;;;;;;;8.93;5.25;;;16.00;99.90;;;;;;5014428;28;20026;-79
2023/05/21 01:53:51;;;;;;;7.70;4.90;;;15.90;99.90;;;;;;5011370;28;20013;-79
2023/05/21 01:56:17;;;;;;;11.02;4.60;;;15.90;99.90;;;;;;5018417;28;20045;-79
2023/05/21 01:58:42;;;;;;;5.03;4.35;;;15.90;99.90;;;;;;5021804;28;20052;-79
2023/05/21 02:01:08;;;;;;;10.18;4.72;;;15.90;99.90;;;;;;5013250;28;20041;-79
2023/05/21 02:03:37;;;;;;;6.75;4.45;;;15.90;99.90;;;;;;5011024;28;20036;-77
2023/05/21 02:06:03;;;;;;;6.50;4.45;;;15.90;99.90;;;;;;5012528;28;20021;-78
2023/05/21 02:08:30;;;;;;;6.35;5.18;;;15.90;99.90;;;;;;5015973;28;20040;-79
2023/05/21 02:10:55;;;;;;;7.05;4.68;;;15.90;99.90;;;;;;5005607;28;20366;-79
2023/05/21 02:13:21;;;;;;;7.13;4.57;;;15.90;99.90;;;;;;5014027;28;20524;-78
2023/05/21 02:15:47;;;;;;;5.28;4.40;;;15.90;99.90;;;;;;5014717;28;20033;-79
2023/05/21 02:18:21;;;;;;;7.38;4.75;;;15.90;99.90;;;;;;5000843;28;20033;-79
2023/05/21 02:20:47;;;;;;;7.20;5.07;;;15.80;99.90;;;;;;5012464;28;20042;-79
2023/05/21 02:23:15;;;;;;;4.93;4.38;;;15.80;99.90;;;;;;5014964;28;20034;-79
2023/05/21 02:25:41;;;;;;;8.13;4.30;;;15.80;99.90;;;;;;5014814;28;20338;-79
2023/05/21 02:28:06;;;;;;;8.32;4.60;;;15.80;99.90;;;;;;5013627;28;20021;-79
2023/05/21 02:30:32;;;;;;;6.50;4.82;;;15.80;99.90;;;;;;5011980;28;20025;-79
2023/05/21 02:32:58;;;;;;;6.38;5.07;;;15.80;99.90;;;;;;4996656;28;20017;-78
2023/05/21 02:35:24;;;;;;;6.97;4.47;;;15.70;99.90;;;;;;5001515;28;20393;-79
2023/05/21 02:37:49;;;;;;;5.53;4.65;;;15.70;99.90;;;;;;5013339;28;20022;-79
2023/05/21 02:40:15;;;;;;;8.25;4.70;;;15.70;99.90;;;;;;5002311;28;20099;-79
2023/05/21 02:42:41;;;;;;;7.55;5.07;;;15.70;99.90;;;;;;5001794;28;20021;-79
2023/05/21 02:45:08;;;;;;;7.00;5.65;;;15.70;99.90;;;;;;5013396;28;20017;-78
2023/05/21 02:47:33;;;;;;;5.43;4.93;;;15.60;99.90;;;;;;5002391;28;20072;-79
2023/05/21 02:50:00;;;;;;;8.32;5.38;;;15.60;99.90;;;;;;4999770;28;20026;-79
2023/05/21 02:52:26;;;;;;;6.75;4.80;;;15.60;99.90;;;;;;5015533;28;20017;-79
2023/05/21 02:54:54;;;;;;;6.68;5.32;;;15.70;99.90;;;;;;5016912;28;20026;-79
2023/05/21 02:57:24;;;;;;;9.65;5.28;;;15.70;99.90;;;;;;4994266;28;20105;-79
2023/05/21 02:59:50;;;;;;;8.20;5.22;;;15.60;99.90;;;;;;5001300;28;20038;-78
2023/05/21 03:02:17;;;;;;;6.55;5.55;;;15.60;99.90;;;;;;5014775;28;20534;-79
2023/05/21 03:04:49;;;;;;;7.43;5.47;;;15.60;99.90;;;;;;5010567;28;20024;-78
2023/05/21 03:07:18;;;;;;;8.85;5.07;;;15.60;99.90;;;;;;5011596;28;20195;-79
2023/05/21 03:09:44;;;;;;;7.72;5.22;;;15.60;99.90;;;;;;4996032;28;20041;-79
2023/05/21 03:12:10;;;;;;;11.25;5.38;;;15.60;99.90;;;;;;4996698;28;20029;-79
2023/05/21 03:14:38;;;;;;;6.38;5.28;;;15.60;99.90;;;;;;5012108;28;20426;-81
2023/05/21 03:17:06;;;;;;;8.35;6.10;;;15.60;99.90;;;;;;5010975;28;20481;-80
2023/05/21 03:19:34;;;;;;;8.20;5.75;;;15.60;99.90;;;;;;5012408;28;20025;-79
2023/05/21 03:22:03;;;;;;;8.82;5.90;;;15.60;99.90;;;;;;5012885;28;20524;-79
2023/05/21 03:24:31;;;;;;;6.10;5.30;;;15.50;99.90;;;;;;5010247;28;20041;-79
2023/05/21 03:26:58;;;;;;;5.97;5.07;;;15.50;99.90;;;;;;4999649;28;20029;-79
2023/05/21 03:29:24;;;;;;;9.95;5.35;;;15.50;99.90;;;;;;5010407;28;20044;-79
2023/05/21 03:31:52;;;;;;;8.25;5.18;;;15.40;99.90;;;;;;5010627;28;20013;-78
2023/05/21 03:34:20;;;;;;;7.72;5.28;;;15.50;99.90;;;;;;5009180;28;20677;-79
2023/05/21 03:36:49;;;;;;;7.60;5.88;;;15.50;99.90;;;;;;5009606;28;20564;-78
2023/05/21 03:39:15;;;;;;;8.75;5.45;;;15.50;99.90;;;;;;4998081;28;20128;-79
2023/05/21 03:41:41;;;;;;;10.65;7.60;;;15.40;99.90;;;;;;5011199;28;20152;-79
2023/05/21 03:44:07;;;;;;;7.32;5.22;;;15.50;99.90;;;;;;5010061;28;20109;-79
2023/05/21 03:46:35;;;;;;;8.63;5.82;;;15.50;99.90;;;;;;5006794;28;20990;-79
2023/05/21 03:49:01;;;;;;;5.38;4.85;;;15.40;99.90;;;;;;5012661;28;20032;-79
2023/05/21 03:51:29;;;;;;;6.32;5.47;;;15.50;99.90;;;;;;5000490;28;20022;-79
2023/05/21 03:53:55;;;;;;;8.98;5.57;;;15.50;99.90;;;;;;5013521;28;20020;-79
2023/05/21 03:56:21;;;;;;;5.97;5.38;;;15.50;99.90;;;;;;5015212;28;20036;-79
2023/05/21 03:58:47;;;;;;;8.13;5.35;;;15.50;99.90;;;;;;5013796;28;20037;-79
2023/05/21 04:01:13;;;;;;;6.88;5.05;;;15.50;99.90;;;;;;5013782;28;20046;-79
2023/05/21 04:03:38;;;;;;;9.52;5.55;;;15.50;99.90;;;;;;5016977;28;20029;-79
2023/05/21 04:06:04;;;;;;;6.43;5.50;;;15.40;99.90;;;;;;5026709;28;20398;-79
2023/05/21 04:08:32;;;;;;;8.85;5.05;;;15.40;99.90;;;;;;5005013;28;20477;-79
2023/05/21 04:10:57;;;;;;;6.78;4.88;;;15.40;99.90;;;;;;5015288;28;20601;-79
2023/05/21 04:13:27;;;;;;;8.52;5.65;;;15.40;99.90;;;;;;5013210;28;20072;-79
2023/05/21 04:15:53;;;;;;;7.88;5.57;;;15.50;99.90;;;;;;5014388;28;20113;-79
2023/05/21 04:18:22;;;;;;;9.10;5.20;;;15.50;99.90;;;;;;4996476;28;20025;-79
2023/05/21 04:20:48;;;;;;;8.07;5.78;;;15.50;99.90;;;;;;5018892;28;20137;-79
2023/05/21 04:23:14;;;;;;;8.30;5.65;;;15.50;99.90;;;;;;5039739;28;20029;-79
2023/05/21 04:25:40;;;;;;;7.78;5.30;;;15.50;99.90;;;;;;5039760;28;20069;-79
2023/05/21 04:28:06;;;;;;;11.82;5.90;;;15.50;99.90;;;;;;5032651;28;20096;-81
2023/05/21 04:30:34;;;;;;;9.30;5.22;;;15.50;99.90;;;;;;5015497;28;20036;-80
2023/05/21 04:33:01;;;;;;;6.97;5.30;;;15.60;99.90;;;;;;5003766;28;20025;-80
2023/05/21 04:35:26;;;;;;;8.57;5.45;;;15.60;99.90;;;;;;5012638;28;20141;-81
2023/05/21 04:37:53;;;;;;;7.00;5.60;;;15.60;99.90;;;;;;5016237;28;20505;-80
2023/05/21 04:40:23;;;;;;;8.13;5.40;;;15.60;99.90;;;;;;5011699;28;20038;-79
2023/05/21 04:42:49;;;;;;;9.30;6.07;;;15.60;99.90;;;;;;5012458;28;20049;-79
2023/05/21 04:45:16;;;;;;;13.32;6.13;;;15.60;99.90;;;;;;4994322;28;20021;-79
2023/05/21 04:47:42;;;;;;;8.10;5.82;;;15.70;99.90;;;;;;5016584;28;20022;-79
2023/05/21 04:50:09;;;;;;;6.57;5.53;;;15.70;99.90;;;;;;5009793;28;20089;-79
2023/05/21 04:52:35;;;;;;;9.70;6.10;;;15.80;99.90;;;;;;5001371;28;20030;-80
2023/05/21 04:55:02;;;;;;;9.70;5.53;;;15.80;99.90;;;;;;5015433;28;20036;-79
2023/05/21 04:57:28;;;;;;;6.95;5.80;;;15.80;99.90;;;;;;5018238;28;20026;-79
2023/05/21 04:59:55;;;;;;;9.60;6.20;;;15.80;99.90;;;;;;5018144;28;20533;-79
2023/05/21 05:02:20;;;;;;;8.10;6.40;;;15.80;99.90;;;;;;5004949;28;20040;-79
2023/05/21 05:04:46;;;;;;;9.70;5.88;;;15.80;99.90;;;;;;5019402;28;20029;-80
2023/05/21 05:07:14;;;;;;;8.30;5.45;;;15.80;99.90;;;;;;5005935;28;20026;-79
2023/05/21 05:09:40;;;;;;;7.13;5.75;;;15.90;99.90;;;;;;5015705;28;20033;-79
2023/05/21 05:12:05;;;;;;;7.43;5.65;;;16.00;99.90;;;;;;5014412;28;20067;-80
2023/05/21 05:14:31;;;;;;;10.15;6.32;;;16.00;99.90;;;;;;5005356;28;20084;-80
2023/05/21 05:16:59;;;;;;;11.80;5.88;;;16.00;99.90;;;;;;5016247;28;20030;-79
2023/05/21 05:19:25;;;;;;;8.23;5.78;;;16.00;99.90;;;;;;5019793;28;20030;-80
2023/05/21 05:21:51;;;;;;;7.78;6.32;;;16.10;99.90;;;;;;5019280;28;20048;-80
2023/05/21 05:24:21;;;;;;;9.10;6.65;;;16.10;99.90;;;;;;5021467;28;20033;-80
2023/05/21 05:26:46;;;;;;;11.82;6.18;;;16.20;99.90;;;;;;5021064;28;20485;-80
2023/05/21 05:29:12;;;;;;;7.63;6.10;;;16.30;99.90;;;;;;5003708;28;20053;-80
2023/05/21 05:31:38;;;;;;;11.20;5.97;;;16.30;99.90;;;;;;5015653;28;20037;-79
2023/05/21 05:34:05;;;;;;;8.73;6.28;;;16.30;99.90;;;;;;5016947;28;20509;-80
2023/05/21 05:36:32;;;;;;;9.70;6.00;;;16.40;99.90;;;;;;5005726;28;20033;-80
2023/05/21 05:38:58;;;;;;;11.40;6.38;;;16.40;99.90;;;;;;5017405;28;20646;-79
2023/05/21 05:41:23;;;;;;;10.02;6.50;;;16.50;99.90;;;;;;5015357;28;20022;-80
2023/05/21 05:43:49;;;;;;;9.60;6.00;;;16.50;99.90;;;;;;5014891;28;20037;-79
2023/05/21 05:46:15;;;;;;;9.68;6.22;;;16.60;99.90;;;;;;5016634;28;20104;-79
2023/05/21 05:48:41;;;;;;;8.75;6.15;;;16.70;99.90;;;;;;5005564;28;20018;-79
2023/05/21 05:51:06;;;;;;;11.90;6.35;;;16.90;99.90;;;;;;5004961;28;20032;-79
2023/05/21 05:53:32;;;;;;;11.95;6.72;;;16.80;99.90;;;;;;5016568;28;20087;-80
2023/05/21 05:55:58;;;;;;;10.00;6.57;;;16.90;99.90;;;;;;5006331;28;20113;-79
2023/05/21 05:58:24;;;;;;;9.55;5.90;;;16.90;99.90;;;;;;5016492;28;20511;-80
2023/05/21 06:00:51;;;;;;;10.35;6.72;;;17.00;99.90;;;;;;5016075;28;20405;-79
2023/05/21 06:03:16;;;;;;;8.50;6.03;;;17.10;99.90;;;;;;5020871;28;20060;-80
2023/05/21 06:05:42;;;;;;;8.60;6.68;;;17.20;99.90;;;;;;5006112;28;20481;-80
2023/05/21 06:08:08;;;;;;;10.77;6.93;;;17.30;99.90;;;;;;5017059;28;20832;-79
2023/05/21 06:10:33;;;;;;;9.73;6.70;;;17.40;99.90;;;;;;5016383;28;20025;-79
2023/05/21 06:12:59;;;;;;;8.38;6.78;;;17.40;99.90;;;;;;5021659;28;20013;-79
2023/05/21 06:15:25;;;;;;;7.60;6.40;;;17.60;99.90;;;;;;5033619;28;20596;-79
2023/05/21 06:17:51;;;;;;;12.40;6.88;;;17.70;99.90;;;;;;5006885;28;20508;-80
2023/05/21 06:20:16;;;;;;;9.60;7.05;;;17.80;99.90;;;;;;5012896;28;20037;-80
2023/05/21 06:22:42;;;;;;;10.57;6.47;;;17.70;99.90;;;;;;5014464;28;20092;-79
2023/05/21 06:25:09;;;;;;;7.53;6.65;;;17.90;99.90;;;;;;5015481;28;20037;-79
2023/05/21 06:27:36;;;;;;;9.63;6.85;;;17.90;99.90;;;;;;5015294;28;20033;-79
2023/05/21 06:30:02;;;;;;;9.55;7.47;;;17.90;99.90;;;;;;5016199;28;20093;-78
2023/05/21 06:32:27;;;;;;;10.98;6.90;;;17.90;99.90;;;;;;5016975;28;20029;-80
2023/05/21 06:34:53;;;;;;;9.80;6.70;;;18.00;99.90;;;;;;5006940;28;20058;-80
2023/05/21 06:37:22;;;;;;;9.25;6.50;;;18.10;99.90;;;;;;5017402;28;20077;-80
2023/05/21 06:39:48;;;;;;;11.32;7.07;;;18.10;99.90;;;;;;5016933;28;20018;-79
2023/05/21 06:42:13;;;;;;;9.80;6.78;;;18.30;99.90;;;;;;5017073;28;20563;-79
2023/05/21 06:44:39;;;;;;;11.32;7.47;;;18.40;99.90;;;;;;5018475;28;20029;-79
2023/05/21 06:47:05;;;;;;;10.65;7.20;;;18.40;99.90;;;;;;5016313;28;20101;-80
2023/05/21 06:49:33;;;;;;;10.25;7.35;;;18.40;99.90;;;;;;5013367;28;20021;-80
2023/05/21 06:51:58;;;;;;;9.68;6.95;;;18.60;99.90;;;;;;5016964;28;20017;-79
2023/05/21 06:54:24;;;;;;;11.50;7.22;;;18.60;99.90;;;;;;5018668;28;20103;-79
2023/05/21 06:56:49;;;;;;;10.75;7.15;;;18.70;99.90;;;;;;5016206;28;20094;-80
2023/05/21 06:59:15;;;;;;;11.57;7.07;;;18.70;99.90;;;;;;5017853;28;20685;-80
2023/05/21 07:01:41;;;;;;;10.55;7.63;;;18.70;99.90;;;;;;5015118;28;20038;-80
2023/05/21 07:04:07;;;;;;;12.40;7.70;;;18.80;99.90;;;;;;5004967;28;20026;-79
2023/05/21 07:06:34;;;;;;;18.40;7.10;;;18.90;99.90;;;;;;5011015;28;20029;-79
2023/05/21 07:08:59;;;;;;;12.27;7.78;;;19.00;99.90;;;;;;5016388;28;20087;-79
2023/05/21 07:11:27;;;;;;;10.18;7.32;;;19.10;99.90;;;;;;5016208;28;20025;-80
2023/05/21 07:13:54;;;;;;;10.77;6.93;;;19.10;99.90;;;;;;5011490;28;20121;-79
2023/05/21 07:16:20;;;;;;;9.85;7.07;;;19.20;99.90;;;;;;5015428;28;20033;-79
2023/05/21 07:18:45;;;;;;;11.88;7.32;;;19.30;99.90;;;;;;5016620;28;20022;-80
2023/05/21 07:21:13;;;;;;;8.35;6.80;;;19.40;99.90;;;;;;5013387;28;20034;-80
2023/05/21 07:23:39;;;;;;;11.00;7.03;;;19.60;99.90;;;;;;5013953;28;20034;-81
2023/05/21 07:26:05;;;;;;;11.35;8.38;;;19.70;99.90;;;;;;5012609;28;20539;-80
2023/05/21 07:28:33;;;;;;;9.32;7.15;;;19.90;99.90;;;;;;5013559;28;20124;-80
2023/05/21 07:30:59;;;;;;;11.77;7.10;;;20.00;99.90;;;;;;5015155;28;20017;-79
2023/05/21 07:33:24;;;;;;;14.63;7.72;;;20.10;99.90;;;;;;4997052;28;20037;-79
2023/05/21 07:35:50;;;;;;;10.43;7.68;;;20.30;99.90;;;;;;5011460;28;20032;-80
2023/05/21 07:38:16;;;;;;;10.75;7.32;;;20.50;99.90;;;;;;5000341;28;20033;-81
2023/05/21 07:40:42;;;;;;;19.02;11.25;;;20.40;99.90;;;;;;5015771;28;20033;-80
2023/05/21 07:43:07;;;;;;;29.25;16.00;;;20.40;99.90;;;;;;5028597;28;20063;-77
2023/05/21 07:45:33;;;;;;;9.98;7.97;;;20.40;99.90;;;;;;5028935;28;20049;-79
2023/05/21 07:48:01;;;;;;;9.35;7.47;;;20.60;99.90;;;;;;5040181;28;20018;-79
2023/05/21 07:50:27;;;;;;;12.82;7.00;;;20.50;99.90;;;;;;5024424;28;20424;-80
2023/05/21 07:52:52;;;;;;;14.43;6.93;;;20.50;99.90;;;;;;5019773;28;20014;-82
2023/05/21 07:55:18;;;;;;;11.13;7.70;;;20.50;99.90;;;;;;5004132;28;20096;-82
2023/05/21 07:57:44;;;;;;;12.13;8.43;;;20.60;99.90;;;;;;5010021;28;20124;-82
2023/05/21 08:00:13;;;;;;;11.00;7.88;;;20.40;99.90;;;;;;5015461;28;20044;-81
2023/05/21 08:02:39;;;;;;;12.30;8.18;;;20.70;99.90;;;;;;4994598;28;20075;-81
2023/05/21 08:05:05;;;;;;;11.77;7.80;;;20.70;99.90;;;;;;5016639;28;21138;-82
2023/05/21 08:07:31;;;;;;;10.23;7.93;;;20.70;99.90;;;;;;5015235;28;20034;-81
2023/05/21 08:09:57;;;;;;;10.52;7.25;;;20.70;99.90;;;;;;5001292;28;20025;-78
2023/05/21 08:12:23;;;;;;;13.20;7.97;;;20.70;99.90;;;;;;5010815;28;20120;-78
2023/05/21 08:14:49;;;;;;;12.43;8.82;;;20.80;99.90;;;;;;5009123;28;20122;-77
2023/05/21 08:17:15;;;;;;;10.73;7.97;;;20.80;99.90;;;;;;5016471;28;20053;-77
2023/05/21 08:19:40;;;;;;;15.70;8.00;;;20.70;99.90;;;;;;4999082;28;20117;-77
2023/05/21 08:22:06;;;;;;;12.95;7.95;;;20.70;99.90;;;;;;5012906;28;20101;-77
2023/05/21 08:24:32;;;;;;;13.43;8.48;;;20.90;99.90;;;;;;5013587;28;20432;-81
2023/05/21 08:26:58;;;;;;;10.68;8.25;;;21.00;99.90;;;;;;5014657;28;20021;-81
2023/05/21 08:29:23;;;;;;;15.50;9.30;;;21.00;99.90;;;;;;5015377;28;20417;-81
2023/05/21 08:31:49;;;;;;;12.32;8.77;;;21.30;99.70;;;;;;5014241;28;20025;-77
2023/05/21 08:34:15;;;;;;;12.23;8.32;;;21.30;99.30;;;;;;5009320;28;20036;-77
2023/05/21 08:36:42;;;;;;;12.45;8.35;;;21.30;99.50;;;;;;5012658;28;20037;-83
2023/05/21 08:39:08;;;;;;;13.40;8.57;;;21.40;99.50;;;;;;5004919;28;20053;-82
2023/05/21 08:41:35;;;;;;;11.18;8.65;;;21.30;99.30;;;;;;5017473;28;20085;-87
2023/05/21 08:44:01;;;;;;;13.82;8.57;;;21.60;99.20;;;;;;5025179;28;20018;-86
2023/05/21 08:46:35;;;;;;;16.08;9.02;;;21.80;98.90;;;;;;5009108;28;20029;-83
2023/05/21 08:49:02;;;;;;;12.32;8.48;;;22.20;98.30;;;;;;5002526;28;20053;-85
2023/05/21 08:51:29;;;;;;;12.68;9.30;;;22.20;98.40;;;;;;5016614;28;20026;-78
2023/05/21 08:53:56;;;;;;;13.30;9.15;;;22.40;97.80;;;;;;4995709;28;20026;-85
2023/05/21 08:56:23;;;;;;;12.77;8.65;;;22.60;97.30;;;;;;5014823;28;20033;-81
2023/05/21 08:58:50;;;;;;;15.05;8.80;;;22.50;97.10;;;;;;5019573;28;20030;-82
2023/05/21 09:01:18;;;;;;;14.32;9.25;;;22.60;97.00;;;;;;5015619;28;20113;-84
2023/05/21 09:03:45;;;;;;;10.27;8.02;;;22.90;96.50;;;;;;5015086;28;20037;-80
2023/05/21 09:06:15;;;;;;;13.07;8.80;;;22.80;96.20;;;;;;5015769;28;20006;-81
2023/05/21 09:08:46;;;;;;;20.13;12.30;;;22.80;96.50;;;;;;5016725;28;20034;-83
2023/05/21 09:11:12;;;;;;;150.00;76.95;;;22.70;96.60;;;;;;5015991;28;20030;-83
2023/05/21 09:13:40;;;;;;;11.93;9.18;;;22.80;96.20;;;;;;4993839;28;20673;-75
2023/05/21 09:16:06;;;;;;;13.85;9.02;;;23.00;96.20;;;;;;5012931;28;20097;-80
2023/05/21 09:18:32;;;;;;;15.82;8.93;;;23.10;96.30;;;;;;5014137;28;20446;-80
2023/05/21 09:21:18;;;;;;;13.10;9.63;;;22.90;96.20;;;;;;5154314;22;20044;-82
2023/05/21 09:23:44;;;;;;;14.85;9.02;;;23.00;95.90;;;;;;5011693;28;20437;-82
2023/05/21 09:26:11;;;;;;;12.30;8.27;;;23.00;96.00;;;;;;5013936;28;20024;-81
2023/05/21 09:28:37;;;;;;;13.85;9.13;;;23.10;95.90;;;;;;5013089;28;20352;-79
2023/05/21 09:31:05;;;;;;;14.02;9.50;;;23.30;96.10;;;;;;5010813;28;20021;-82
2023/05/21 09:33:30;;;;;;;14.73;9.50;;;23.40;95.00;;;;;;5004061;28;20052;-82
2023/05/21 09:35:56;;;;;;;13.52;9.88;;;23.50;94.90;;;;;;5003123;28;20148;-83
2023/05/21 09:38:25;;;;;;;13.32;9.13;;;23.80;94.80;;;;;;5012880;28;20014;-84
2023/05/21 09:40:55;;;;;;;14.48;9.60;;;24.10;94.30;;;;;;5010962;28;20041;-81
2023/05/21 09:43:21;;;;;;;15.00;9.88;;;24.20;93.70;;;;;;5013603;28;20029;-81
2023/05/21 09:45:51;;;;;;;82.00;35.33;;;24.30;94.00;;;;;;5000795;28;20037;-80
2023/05/21 09:48:30;;;;;;;90.68;47.60;;;24.90;93.30;;;;;;5017368;28;20052;-83
2023/05/21 09:51:16;;;;;;;14.73;10.15;;;25.20;92.30;;;;;;5015765;28;20462;-82
2023/05/21 09:53:48;;;;;;;13.38;9.45;;;25.40;92.20;;;;;;5014645;28;20037;-77
2023/05/21 09:56:13;;;;;;;13.30;9.63;;;25.70;91.80;;;;;;5018744;28;20030;-77
2023/05/21 09:58:39;;;;;;;18.92;12.27;;;25.80;90.90;;;;;;5004353;28;20453;-77
2023/05/21 10:01:06;;;;;;;13.50;9.80;;;26.00;91.00;;;;;;5014924;28;20038;-83
2023/05/21 10:03:36;;;;;;;16.60;10.52;;;26.10;91.10;;;;;;5002294;28;20017;-77
2023/05/21 10:06:02;;;;;;;15.27;9.95;;;26.10;90.20;;;;;;5146801;22;20045;-83
2023/05/21 10:08:32;;;;;;;13.95;10.38;;;26.40;90.00;;;;;;4998064;28;20038;-82
2023/05/21 10:10:58;;;;;;;16.40;11.07;;;26.60;89.70;;;;;;4995644;28;20029;-77
2023/05/21 10:13:24;;;;;;;17.00;11.23;;;26.60;88.90;;;;;;4984432;28;20105;-77
2023/05/21 10:16:00;;;;;;;18.00;11.57;;;26.70;87.70;;;;;;4995631;28;20601;-77
2023/05/21 10:18:29;;;;;;;16.63;10.50;;;26.90;87.80;;;;;;5004116;28;20049;-84
2023/05/21 10:20:55;;;;;;;35.95;18.88;;;27.40;86.40;;;;;;4995507;28;20428;-79
2023/05/21 10:23:23;;;;;;;16.45;11.73;;;27.60;86.30;;;;;;4980961;28;20318;-84
2023/05/21 10:25:49;;;;;;;15.10;10.77;;;27.80;84.40;;;;;;5017322;28;20026;-84
2023/05/21 10:28:18;;;;;;;15.45;10.63;;;27.60;84.30;;;;;;5007147;28;20030;-84
2023/05/21 10:30:45;;;;;;;15.23;10.80;;;27.40;85.40;;;;;;4981722;28;20026;-84
2023/05/21 10:33:15;;;;;;;16.23;11.55;;;27.20;84.80;;;;;;4998365;28;20045;-84
2023/05/21 10:35:42;;;;;;;16.33;12.48;;;27.10;85.80;;;;;;5000350;28;20199;-84
2023/05/21 10:38:08;;;;;;;17.88;11.50;;;27.00;84.50;;;;;;4996272;28;20026;-77
2023/05/21 10:40:37;;;;;;;19.15;12.23;;;26.90;85.60;;;;;;4996652;28;20482;-77
2023/05/21 10:43:23;;;;;;;18.67;11.88;;;26.70;85.10;;;;;;4993940;28;20030;-78
2023/05/21 10:46:43;;;;;;;17.08;12.80;;;26.80;86.00;;;;;;4994871;28;20706;-77
2023/05/21 10:49:29;;;;;;;19.60;12.82;;;27.00;85.80;;;;;;4905504;29;20036;-77
2023/05/21 10:52:45;;;;;;;15.52;11.45;;;27.30;84.90;;;;;;4977487;28;20145;-77
2023/05/21 10:55:32;;;;;;;19.15;12.35;;;27.60;83.80;;;;;;4971448;28;20046;-77
2023/05/21 10:58:08;;;;;;;17.00;12.13;;;27.60;84.40;;;;;;4994465;28;20029;-75
2023/05/21 11:00:34;;;;;;;18.67;12.68;;;28.10;83.90;;;;;;4994302;28;20042;-76
2023/05/21 11:03:02;;;;;;;16.45;11.75;;;28.20;82.50;;;;;;4975232;28;21729;-79
2023/05/21 11:05:54;;;;;;;17.58;12.35;;;28.20;82.90;;;;;;5010167;28;20065;-80
2023/05/21 11:08:25;;;;;;;14.90;12.05;;;28.30;80.80;;;;;;4987568;28;20061;-77
2023/05/21 11:10:52;;;;;;;15.60;12.40;;;28.50;81.20;;;;;;4986920;28;20098;-78
2023/05/21 11:13:21;;;;;;;537.70;220.38;;;28.60;80.20;;;;;;4996425;28;20026;-81
2023/05/21 11:16:01;;;;;;;19.52;13.05;;;28.60;80.70;;;;;;4999516;28;20037;-79
2023/05/21 11:18:36;;;;;;;19.15;11.73;;;28.60;80.80;;;;;;4996356;28;20088;-80
2023/05/21 11:21:10;;;;;;;20.48;14.07;;;28.60;79.60;;;;;;4976798;28;20489;-80
2023/05/21 11:23:51;;;;;;;17.38;12.68;;;28.30;80.70;;;;;;4995873;28;20115;-79
2023/05/21 11:26:20;;;;;;;15.45;12.43;;;27.90;80.10;;;;;;4996706;28;20026;-79
2023/05/21 11:28:49;;;;;;;19.63;13.15;;;27.60;80.70;;;;;;4995354;28;20552;-78
2023/05/21 11:31:25;;;;;;;16.33;12.70;;;27.40;81.80;;;;;;4996072;28;20387;-78
2023/05/21 11:34:09;;;;;;;19.23;13.57;;;27.40;81.90;;;;;;4993524;28;20125;-78
2023/05/21 11:36:37;;;;;;;165.90;79.78;;;27.40;83.00;;;;;;4993655;28;20528;-86
2023/05/21 11:39:16;;;;;;;20.45;13.32;;;27.70;82.20;;;;;;4993976;28;20014;-80
2023/05/21 11:41:50;;;;;;;17.77;12.27;;;27.90;81.50;;;;;;4995641;28;20502;-82
2023/05/21 11:44:16;;;;;;;18.45;12.50;;;28.10;81.50;;;;;;4976309;28;20375;-82
2023/05/21 11:46:47;;;;;;;20.10;13.38;;;28.50;80.70;;;;;;4994072;28;20030;-83
2023/05/21 11:49:16;;;;;;;19.88;13.00;;;28.50;80.60;;;;;;4990733;28;20089;-83
2023/05/21 11:51:42;;;;;;;19.40;13.57;;;28.80;80.10;;;;;;4978852;28;20054;-81
2023/05/21 11:54:09;;;;;;;24.55;14.20;;;28.70;80.00;;;;;;4993140;28;20023;-81
2023/05/21 11:56:40;;;;;;;17.70;12.93;;;28.80;78.40;;;;;;4997570;28;20033;-82
2023/05/21 11:59:15;;;;;;;18.13;12.65;;;29.00;79.10;;;;;;4979688;28;20079;-80
2023/05/21 12:01:43;;;;;;;16.60;12.48;;;29.30;78.70;;;;;;4997957;28;20093;-83
2023/05/21 12:04:10;;;;;;;17.95;13.23;;;29.30;77.80;;;;;;4979706;28;20508;-80
2023/05/21 12:06:37;;;;;;;19.88;12.98;;;29.30;77.90;;;;;;5134915;22;20110;-82
2023/05/21 12:09:03;;;;;;;16.73;12.75;;;29.20;78.10;;;;;;4976553;28;20085;-82
2023/05/21 12:11:29;;;;;;;17.13;12.43;;;29.10;77.80;;;;;;4986619;28;20419;-82
2023/05/21 12:13:55;;;;;;;18.67;13.50;;;28.90;78.30;;;;;;4977348;28;20017;-82
2023/05/21 12:16:22;;;;;;;19.33;13.25;;;28.70;78.50;;;;;;4975333;28;20065;-82
2023/05/21 12:18:47;;;;;;;16.92;12.40;;;28.90;78.30;;;;;;4975322;28;20648;-81
2023/05/21 12:21:13;;;;;;;22.13;12.63;;;29.00;79.10;;;;;;4977714;28;20041;-81
2023/05/21 12:23:39;;;;;;;17.88;13.02;;;29.00;79.00;;;;;;4987798;28;20418;-83
2023/05/21 12:26:05;;;;;;;18.83;12.52;;;29.20;79.20;;;;;;4994935;28;20019;-81
2023/05/21 12:28:31;;;;;;;18.98;12.90;;;29.20;77.60;;;;;;4988446;28;20030;-82
2023/05/21 12:30:56;;;;;;;18.85;13.05;;;29.30;77.20;;;;;;4979456;28;21116;-81
2023/05/21 12:33:24;;;;;;;16.13;13.10;;;29.20;77.50;;;;;;4983865;28;20026;-82
2023/05/21 12:35:51;;;;;;;14.07;12.45;;;29.00;76.50;;;;;;5127282;22;20104;-82
2023/05/21 12:38:16;;;;;;;17.00;11.75;;;28.90;77.00;;;;;;4990624;28;20104;-81
2023/05/21 12:40:44;;;;;;;20.55;12.07;;;28.90;78.10;;;;;;4990708;28;20361;-80